createdAt,value
2022-09-26T00:01:47.266Z,15.73
2022-09-26T00:04:50.242Z,16.10
2022-09-26T00:07:52.439Z,16.67
2022-09-26T00:11:00.690Z,17.13
2022-09-26T00:14:06.871Z,16.35
2022-09-26T00:17:09.054Z,15.53
2022-09-26T00:20:11.243Z,17.17
2022-09-26T00:23:13.416Z,17.08
2022-09-26T00:26:17.167Z,16.85
2022-09-26T00:29:19.411Z,16.13
2022-09-26T00:32:21.776Z,15.73
2022-09-26T00:35:24.903Z,15.93
2022-09-26T00:38:27.043Z,16.48
2022-09-26T00:41:29.309Z,18.10
2022-09-26T00:44:48.571Z,15.60
2022-09-26T00:47:58.156Z,14.80
2022-09-26T00:51:00.754Z,16.30
2022-09-26T00:54:03.602Z,17.02
2022-09-26T00:57:13.297Z,16.50
2022-09-26T01:00:18.160Z,18.25
2022-09-26T01:03:22.984Z,17.37
2022-09-26T01:06:25.191Z,17.70
2022-09-26T01:09:27.635Z,16.60
2022-09-26T01:12:30.334Z,18.05
2022-09-26T01:15:32.529Z,19.40
2022-09-26T01:18:35.137Z,19.50
2022-09-26T01:21:55.650Z,18.90
2022-09-26T01:25:07.649Z,19.58
2022-09-26T01:28:26.424Z,19.38
2022-09-26T01:31:28.572Z,19.30
2022-09-26T01:34:38.590Z,19.10
2022-09-26T01:37:49.915Z,19.77
2022-09-26T01:41:14.174Z,20.00
2022-09-26T01:44:34.010Z,18.88
2022-09-26T01:47:56.048Z,18.73
2022-09-26T01:51:04.345Z,17.67
2022-09-26T01:54:11.612Z,18.20
2022-09-26T01:57:30.187Z,18.67
2022-09-26T02:00:34.813Z,18.70
2022-09-26T02:03:40.684Z,18.88
2022-09-26T02:06:44.855Z,20.07
2022-09-26T02:10:00.021Z,18.77
2022-09-26T02:13:11.058Z,18.27
2022-09-26T02:16:28.097Z,19.30
2022-09-26T02:19:36.368Z,19.23
2022-09-26T02:22:38.789Z,19.50
2022-09-26T02:25:41.116Z,19.00
2022-09-26T02:28:43.698Z,19.70
2022-09-26T02:31:55.960Z,20.77
2022-09-26T02:35:00.143Z,20.13
2022-09-26T02:38:05.746Z,20.90
2022-09-26T02:41:14.970Z,20.53
2022-09-26T02:44:29.140Z,22.80
2022-09-26T02:47:49.861Z,21.75
2022-09-26T02:51:10.840Z,21.33
2022-09-26T02:54:29.024Z,21.97
2022-09-26T02:57:37.211Z,21.20
2022-09-26T03:01:05.166Z,21.65
2022-09-26T03:04:46.783Z,22.17
2022-09-26T03:07:59.769Z,21.25
2022-09-26T03:11:08.256Z,21.00
2022-09-26T03:14:11.449Z,21.73
2022-09-26T03:17:15.681Z,22.80
2022-09-26T03:20:20.649Z,22.63
2022-09-26T03:23:26.048Z,23.77
2022-09-26T03:26:32.524Z,23.83
2022-09-26T03:29:39.303Z,23.80
2022-09-26T03:32:44.948Z,24.50
2022-09-26T03:35:48.764Z,24.27
2022-09-26T03:38:51.315Z,24.65
2022-09-26T03:42:16.618Z,23.13
2022-09-26T03:45:21.214Z,24.57
2022-09-26T03:48:35.316Z,24.00
2022-09-26T03:51:38.043Z,24.40
2022-09-26T03:54:40.396Z,24.88
2022-09-26T03:57:42.796Z,25.57
2022-09-26T04:00:54.679Z,24.37
2022-09-26T04:03:57.789Z,23.13
2022-09-26T04:07:00.587Z,23.77
2022-09-26T04:10:02.991Z,23.17
2022-09-26T04:13:06.264Z,24.23
2022-09-26T04:16:09.950Z,23.93
2022-09-26T04:19:12.470Z,23.35
2022-09-26T04:22:14.720Z,23.80
2022-09-26T04:25:19.339Z,24.23
2022-09-26T04:28:21.722Z,23.80
2022-09-26T04:31:30.787Z,23.43
2022-09-26T04:34:41.067Z,23.48
2022-09-26T04:37:45.185Z,23.77
2022-09-26T04:40:48.789Z,22.98
2022-09-26T04:43:53.707Z,22.93
2022-09-26T04:46:56.043Z,22.40
2022-09-26T04:50:08.446Z,23.75
2022-09-26T04:53:12.504Z,24.40
2022-09-26T04:56:24.618Z,24.58
2022-09-26T04:59:26.831Z,25.67
2022-09-26T05:02:34.533Z,25.60
2022-09-26T05:05:36.779Z,26.20
2022-09-26T05:08:41.284Z,26.95
2022-09-26T05:11:43.988Z,27.60
2022-09-26T05:14:48.513Z,28.20
2022-09-26T05:17:56.579Z,28.50
2022-09-26T05:21:00.608Z,28.42
2022-09-26T05:24:21.374Z,27.13
2022-09-26T05:27:24.319Z,26.20
2022-09-26T05:30:32.184Z,25.67
2022-09-26T05:33:37.926Z,26.13
2022-09-26T05:36:42.846Z,26.92
2022-09-26T05:40:03.675Z,26.70
2022-09-26T05:43:08.226Z,26.67
2022-09-26T05:46:11.745Z,25.73
2022-09-26T05:49:20.440Z,27.00
2022-09-26T05:52:23.084Z,26.27
2022-09-26T05:55:27.953Z,27.05
2022-09-26T05:59:09.085Z,26.45
2022-09-26T06:02:23.659Z,26.63
2022-09-26T06:05:42.564Z,25.63
2022-09-26T06:08:51.795Z,24.17
2022-09-26T06:12:23.528Z,25.00
2022-09-26T06:15:25.671Z,27.17
2022-09-26T06:18:27.933Z,26.60
2022-09-26T06:21:30.560Z,26.70
2022-09-26T06:24:45.149Z,26.33
2022-09-26T06:27:59.796Z,27.20
2022-09-26T06:31:14.459Z,27.17
2022-09-26T06:34:36.213Z,28.17
2022-09-26T06:38:06.045Z,27.77
2022-09-26T06:41:09.034Z,27.77
2022-09-26T06:44:12.937Z,26.88
2022-09-26T06:47:40.715Z,26.67
2022-09-26T06:51:03.368Z,28.47
2022-09-26T06:54:06.663Z,27.20
2022-09-26T06:57:14.922Z,28.13
2022-09-26T07:00:18.478Z,27.77
2022-09-26T07:03:45.077Z,28.15
2022-09-26T07:07:23.958Z,25.83
2022-09-26T07:10:29.714Z,26.13
2022-09-26T07:13:39.464Z,25.65
2022-09-26T07:16:42.501Z,24.40
2022-09-26T07:19:58.656Z,25.60
2022-09-26T07:23:20.182Z,24.83
2022-09-26T07:26:23.375Z,25.83
2022-09-26T07:29:27.388Z,23.98
2022-09-26T07:32:31.509Z,24.38
2022-09-26T07:35:48.732Z,23.15
2022-09-26T07:38:51.621Z,23.10
2022-09-26T07:41:55.639Z,21.47
2022-09-26T07:48:41.039Z,22.02
2022-09-26T07:52:13.219Z,21.52
2022-09-26T07:55:58.398Z,19.67
2022-09-26T07:59:14.805Z,19.70
2022-09-26T08:02:32.444Z,21.60
2022-09-26T08:05:35.633Z,20.25
2022-09-26T08:08:39.439Z,22.17
2022-09-26T08:12:07.740Z,21.00
2022-09-26T08:15:45.202Z,19.50
2022-09-26T08:18:55.958Z,19.10
2022-09-26T08:21:59.756Z,19.98
2022-09-26T08:25:02.232Z,21.23
2022-09-26T08:28:12.924Z,21.00
2022-09-26T08:31:18.014Z,21.67
2022-09-26T08:34:25.262Z,17.60
2022-09-26T08:37:46.701Z,16.88
2022-09-26T08:41:32.676Z,17.48
2022-09-26T08:44:58.888Z,16.43
2022-09-26T08:48:20.512Z,15.77
2022-09-26T08:51:46.639Z,12.82
2022-09-26T08:54:51.583Z,12.90
2022-09-26T08:58:37.993Z,12.60
2022-09-26T09:01:42.498Z,11.73
2022-09-26T09:05:15.434Z,11.07
2022-09-26T09:08:24.644Z,12.43
2022-09-26T09:12:27.047Z,12.52
2022-09-26T09:15:57.303Z,12.18
2022-09-26T09:19:44.083Z,12.20
2022-09-26T09:23:33.871Z,12.43
2022-09-26T09:30:40.784Z,11.57
2022-09-26T09:34:04.152Z,9.80
2022-09-26T09:37:47.281Z,10.27
2022-09-26T09:41:22.012Z,8.70
2022-09-26T09:44:46.430Z,8.20
2022-09-26T09:47:50.314Z,7.75
2022-09-26T09:51:03.545Z,8.02
2022-09-26T09:54:31.426Z,8.53
2022-09-26T09:57:49.569Z,8.00
2022-09-26T10:01:19.085Z,8.07
2022-09-26T10:04:35.796Z,8.02
2022-09-26T10:07:39.712Z,7.63
2022-09-26T10:11:42.193Z,7.17
2022-09-26T10:15:07.920Z,7.37
2022-09-26T10:18:28.538Z,6.55
2022-09-26T10:21:48.686Z,8.43
2022-09-26T10:24:52.908Z,8.40
2022-09-26T10:27:57.358Z,8.57
2022-09-26T10:31:08.461Z,9.60
2022-09-26T10:34:32.368Z,10.50
2022-09-26T10:37:37.131Z,9.00
2022-09-26T10:40:59.654Z,7.18
2022-09-26T10:44:03.814Z,8.53
2022-09-26T10:47:26.799Z,7.73
2022-09-26T10:50:52.272Z,8.27
2022-09-26T10:54:19.253Z,5.47
2022-09-26T10:57:30.710Z,5.57
2022-09-26T11:00:33.480Z,6.00
2022-09-26T11:03:42.614Z,5.13
2022-09-26T11:07:06.204Z,4.65
2022-09-26T11:10:17.600Z,5.15
2022-09-26T11:14:03.585Z,5.70
2022-09-26T11:17:08.880Z,5.53
2022-09-26T11:20:27.790Z,5.53
2022-09-26T11:23:45.032Z,5.40
2022-09-26T11:27:04.417Z,5.13
2022-09-26T11:30:12.989Z,4.97
2022-09-26T11:33:20.431Z,5.43
2022-09-26T11:37:03.670Z,5.33
2022-09-26T11:40:38.142Z,5.50
2022-09-26T11:43:53.643Z,4.93
2022-09-26T11:47:50.182Z,4.47
2022-09-26T11:51:08.218Z,4.37
2022-09-26T11:54:47.900Z,4.30
2022-09-26T11:58:04.781Z,4.00
2022-09-26T12:01:30.993Z,5.40
2022-09-26T12:04:49.968Z,4.43
2022-09-26T12:08:14.908Z,4.40
2022-09-26T12:12:15.325Z,4.70
2022-09-26T12:15:55.196Z,4.03
2022-09-26T12:19:15.543Z,5.22
2022-09-26T12:22:37.660Z,3.95
2022-09-26T12:26:01.380Z,3.40
2022-09-26T12:29:06.634Z,2.90
2022-09-26T12:32:39.608Z,3.28
2022-09-26T12:35:48.143Z,3.35
2022-09-26T12:39:02.259Z,3.50
2022-09-26T12:42:27.544Z,3.30
2022-09-26T12:45:53.345Z,2.97
2022-09-26T12:49:14.402Z,3.17
2022-09-26T12:52:41.204Z,3.50
2022-09-26T12:56:15.475Z,3.15
2022-09-26T12:59:54.733Z,3.53
2022-09-26T13:03:16.033Z,3.63
2022-09-26T13:07:18.272Z,3.72
2022-09-26T13:10:31.921Z,3.55
2022-09-26T13:14:12.382Z,3.63
2022-09-26T13:17:18.814Z,3.20
2022-09-26T13:20:43.384Z,3.20
2022-09-26T13:23:53.624Z,3.42
2022-09-26T13:27:23.735Z,3.33
2022-09-26T13:30:29.484Z,3.60
2022-09-26T13:33:48.473Z,3.33
2022-09-26T13:36:51.305Z,3.63
2022-09-26T13:40:05.074Z,3.53
2022-09-26T13:43:20.368Z,3.53
2022-09-26T13:46:41.975Z,2.67
2022-09-26T13:50:03.190Z,3.30
2022-09-26T13:53:25.063Z,3.03
2022-09-26T13:56:31.354Z,3.33
2022-09-26T13:59:51.491Z,2.92
2022-09-26T14:03:18.022Z,3.03
2022-09-26T14:06:27.338Z,3.00
2022-09-26T14:09:55.255Z,3.00
2022-09-26T14:13:08.346Z,2.50
2022-09-26T14:16:28.634Z,2.53
2022-09-26T14:19:37.000Z,2.60
2022-09-26T14:22:53.072Z,2.70
2022-09-26T14:25:56.698Z,2.70
2022-09-26T14:29:31.070Z,2.67
2022-09-26T14:32:38.724Z,2.13
2022-09-26T14:35:43.215Z,2.50
2022-09-26T14:38:50.424Z,2.50
2022-09-26T14:41:53.574Z,2.80
2022-09-26T14:45:01.288Z,2.22
2022-09-26T14:48:12.934Z,2.10
2022-09-26T14:51:16.124Z,2.20
2022-09-26T14:54:27.305Z,2.00
2022-09-26T14:57:34.220Z,2.20
2022-09-26T15:00:43.206Z,1.88
2022-09-26T15:04:03.211Z,2.20
2022-09-26T15:07:15.238Z,2.35
2022-09-26T15:10:46.929Z,2.20
2022-09-26T15:13:52.152Z,1.90
2022-09-26T15:16:56.167Z,2.00
2022-09-26T15:20:00.896Z,2.20
2022-09-26T15:23:22.531Z,2.40
2022-09-26T15:26:27.576Z,2.37
2022-09-26T15:29:29.915Z,2.23
2022-09-26T15:32:33.416Z,2.70
2022-09-26T15:35:35.569Z,2.50
2022-09-26T15:38:39.040Z,2.78
2022-09-26T15:42:03.435Z,2.90
2022-09-26T15:45:28.813Z,2.80
2022-09-26T15:48:35.313Z,2.65
2022-09-26T15:51:39.737Z,3.00
2022-09-26T15:54:42.796Z,2.53
2022-09-26T15:57:45.513Z,2.57
2022-09-26T16:00:50.889Z,2.47
2022-09-26T16:03:59.790Z,2.50
2022-09-26T16:07:19.158Z,3.40
2022-09-26T16:10:28.489Z,5.35
2022-09-26T16:13:35.470Z,4.50
2022-09-26T16:16:38.091Z,3.70
2022-09-26T16:19:50.437Z,6.30
2022-09-26T16:23:04.369Z,6.03
2022-09-26T16:26:23.999Z,4.15
2022-09-26T16:29:34.989Z,5.47
2022-09-26T16:32:37.435Z,6.23
2022-09-26T16:35:47.318Z,8.25
2022-09-26T16:39:00.507Z,9.57
2022-09-26T16:42:15.061Z,8.57
2022-09-26T16:45:17.331Z,6.80
2022-09-26T16:48:40.687Z,9.27
2022-09-26T16:52:22.844Z,8.82
2022-09-26T16:55:26.140Z,7.72
2022-09-26T16:58:28.402Z,11.52
2022-09-26T17:01:50.027Z,9.27
2022-09-26T17:04:54.171Z,8.83
2022-09-26T17:07:56.376Z,9.57
2022-09-26T17:11:02.701Z,10.57
2022-09-26T17:14:07.121Z,10.98
2022-09-26T17:17:21.721Z,11.57
2022-09-26T17:20:24.436Z,12.00
2022-09-26T17:23:43.273Z,10.25
2022-09-26T17:27:07.095Z,10.93
2022-09-26T17:30:35.926Z,9.38
2022-09-26T17:33:40.501Z,9.00
2022-09-26T17:36:47.244Z,8.30
2022-09-26T17:39:49.493Z,7.88
2022-09-26T17:42:55.409Z,7.82
2022-09-26T17:45:58.467Z,8.07
2022-09-26T17:49:05.127Z,8.20
2022-09-26T17:52:26.891Z,8.27
2022-09-26T17:55:31.054Z,7.75
2022-09-26T17:58:34.318Z,7.82
2022-09-26T18:01:36.501Z,7.40
2022-09-26T18:04:41.292Z,8.00
2022-09-26T18:07:43.624Z,8.70
2022-09-26T18:10:51.618Z,12.25
2022-09-26T18:13:55.400Z,16.70
2022-09-26T18:16:58.983Z,17.73
2022-09-26T18:20:01.463Z,14.37
2022-09-26T18:23:05.643Z,14.73
2022-09-26T18:26:11.097Z,14.70
2022-09-26T18:29:17.199Z,15.02
2022-09-26T18:32:27.299Z,16.33
2022-09-26T18:35:30.146Z,17.93
2022-09-26T18:38:32.590Z,16.30
2022-09-26T18:41:35.441Z,15.40
2022-09-26T18:44:37.952Z,15.07
2022-09-26T18:47:45.566Z,18.70
2022-09-26T18:50:48.565Z,17.37
2022-09-26T18:53:50.865Z,17.97
2022-09-26T18:57:11.958Z,16.58
2022-09-26T19:00:14.372Z,15.15
2022-09-26T19:03:18.584Z,15.15
2022-09-26T19:06:25.124Z,15.87
2022-09-26T19:09:35.279Z,16.90
2022-09-26T19:12:39.849Z,16.90
2022-09-26T19:15:42.535Z,16.52
2022-09-26T19:18:45.392Z,16.17
2022-09-26T19:21:58.496Z,15.80
2022-09-26T19:25:05.553Z,13.90
2022-09-26T19:28:13.755Z,14.85
2022-09-26T19:31:16.360Z,16.50
2022-09-26T19:34:19.386Z,14.98
2022-09-26T19:37:21.652Z,16.10
2022-09-26T19:40:24.796Z,15.27
2022-09-26T19:43:27.088Z,15.23
2022-09-26T19:46:30.537Z,14.20
2022-09-26T19:49:32.928Z,15.73
2022-09-26T19:52:35.756Z,16.20
2022-09-26T19:55:39.435Z,15.97
2022-09-26T19:58:42.835Z,16.10
2022-09-26T20:01:48.679Z,16.92
2022-09-26T20:04:51.332Z,19.67
2022-09-26T20:07:53.941Z,21.10
2022-09-26T20:10:57.867Z,21.97
2022-09-26T20:14:18.486Z,21.15
2022-09-26T20:17:25.420Z,21.65
2022-09-26T20:20:27.840Z,19.55
2022-09-26T20:23:33.104Z,21.00
2022-09-26T20:26:35.587Z,21.77
2022-09-26T20:29:56.225Z,25.08
2022-09-26T20:32:59.262Z,27.00
2022-09-26T20:36:04.310Z,24.38
2022-09-26T20:39:10.424Z,25.77
2022-09-26T20:42:16.776Z,23.80
2022-09-26T20:45:22.632Z,25.23
2022-09-26T20:48:27.413Z,26.67
2022-09-26T20:51:34.336Z,27.05
2022-09-26T20:54:36.571Z,25.37
2022-09-26T20:57:38.751Z,25.70
2022-09-26T21:00:41.935Z,24.90
2022-09-26T21:03:47.606Z,26.60
2022-09-26T21:06:49.767Z,25.75
2022-09-26T21:09:52.280Z,27.20
2022-09-26T21:12:54.833Z,26.27
2022-09-26T21:15:57.002Z,24.40
2022-09-26T21:18:59.128Z,22.23
2022-09-26T21:22:02.739Z,25.20
2022-09-26T21:25:21.766Z,23.57
2022-09-26T21:28:26.725Z,20.23
2022-09-26T21:31:31.532Z,19.52
2022-09-26T21:34:34.327Z,19.23
2022-09-26T21:37:36.734Z,19.48
2022-09-26T21:40:40.329Z,22.20
2022-09-26T21:43:46.904Z,21.47
2022-09-26T21:46:50.446Z,21.05
2022-09-26T21:49:53.550Z,20.63
2022-09-26T21:53:03.036Z,20.08
2022-09-26T21:56:10.446Z,19.47
2022-09-26T21:59:12.727Z,18.23
2022-09-26T22:02:15.050Z,17.30
2022-09-26T22:05:18.343Z,18.05
2022-09-26T22:08:20.626Z,18.35
2022-09-26T22:11:22.912Z,16.47
2022-09-26T22:14:25.738Z,18.27
2022-09-26T22:17:27.940Z,19.25
2022-09-26T22:20:30.096Z,20.35
2022-09-26T22:23:33.494Z,19.13
2022-09-26T22:26:35.821Z,18.50
2022-09-26T22:29:38.028Z,18.97
2022-09-26T22:32:40.241Z,18.15
2022-09-26T22:35:47.446Z,18.42
2022-09-26T22:38:50.312Z,19.38
2022-09-26T22:41:52.859Z,20.87
2022-09-26T22:44:55.081Z,19.47
2022-09-26T22:47:57.261Z,19.10
2022-09-26T22:50:59.623Z,19.80
2022-09-26T22:54:01.973Z,19.85
2022-09-26T22:57:04.419Z,20.47
2022-09-26T23:00:07.470Z,19.73
2022-09-26T23:03:09.638Z,22.17
2022-09-26T23:06:12.098Z,21.85
2022-09-26T23:09:14.302Z,20.33
2022-09-26T23:12:16.629Z,20.90
2022-09-26T23:15:19.403Z,21.53
2022-09-26T23:18:22.307Z,20.42
2022-09-26T23:21:26.937Z,19.92
2022-09-26T23:24:29.376Z,20.58
2022-09-26T23:27:31.700Z,20.67
2022-09-26T23:30:33.873Z,20.93
2022-09-26T23:33:37.761Z,21.13
2022-09-26T23:36:39.894Z,20.70
2022-09-26T23:39:42.986Z,23.83
2022-09-26T23:42:46.175Z,24.70
2022-09-26T23:45:49.725Z,25.90
2022-09-26T23:48:52.876Z,25.63
2022-09-26T23:51:56.069Z,27.42
2022-09-26T23:54:59.056Z,27.25
2022-09-26T23:58:02.281Z,27.73
